Pagina principale
METAR-TAF:

METAR-TAF

Aeroporti :

Beverly, Massachusetts, Stati Uniti

latitudine: 42-35-01N, longitudine: 070-54-59W, altezza: 33 m

Osservazione

Il bollettino è stato emesso 14 minuti fa, alle 15:53 UTC
Vento 9 kt da nord-est
Temperature 4°C
Umidità 87%
Pressione 1011 hPa
Visibilità: 16.1 km
Nuvoloso ad un'altezza di 900 ft
Cielo coperto ad un'altezza di 1300 ft
pioggia debole

METAR: KBVY 201553Z 04009KT 10SM -RA BKN009 OVC013 04/02 A2986 RMK AO2 SLP108 P0003 T00440022

Ora: 11:07 (16:07 UTC)


TAF: mancante

Osservazioni e previsioni meteorologiche di più di 4000 aeroporti (messaggi METAR e TAF).

Le stazioni disponibili sono rappresentate dai dischi gialli e rossi sulla carta.

Puntare il mouse per vedere il nome della stazione.

Clicca sopra per visualizzare le osservazioni e previsioni meteorologiche.

Per cambiare la mappa : fare clic sui pulsanti verdi con una croce nera per ingrandire, il pulsante verde con un trattino per diminuire, o sulla freccia verde per le mappe adiacenti.


METAR-TAF: